createdAt,value
2018-12-16T00:00:18.810Z,17.57
2018-12-16T00:02:57.412Z,17.20
2018-12-16T00:05:35.423Z,17.20
2018-12-16T00:11:46.601Z,16.53
2018-12-16T00:14:24.750Z,17.40
2018-12-16T00:17:04.360Z,18.10
2018-12-16T00:19:42.494Z,17.07
2018-12-16T00:22:21.185Z,17.90
2018-12-16T00:24:59.229Z,17.67
2018-12-16T00:27:41.481Z,17.53
2018-12-16T00:30:19.194Z,18.33
2018-12-16T00:32:57.678Z,18.70
2018-12-16T00:35:35.905Z,19.03
2018-12-16T00:38:14.033Z,18.50
2018-12-16T00:40:52.199Z,19.30
2018-12-16T00:43:30.337Z,17.87
2018-12-16T00:59:05.244Z,19.20
2018-12-16T01:09:30.702Z,18.70
2018-12-16T01:12:08.783Z,19.10
2018-12-16T01:14:46.808Z,19.73
2018-12-16T01:17:24.875Z,20.20
2018-12-16T01:20:06.362Z,20.97
2018-12-16T01:22:44.498Z,20.23
2018-12-16T01:25:23.415Z,19.27
2018-12-16T01:28:03.193Z,20.83
2018-12-16T01:30:41.045Z,20.63
2018-12-16T01:33:18.343Z,20.40
2018-12-16T01:35:57.223Z,20.47
2018-12-16T01:38:35.056Z,20.50
2018-12-16T01:41:13.267Z,21.17
2018-12-16T01:43:51.275Z,21.43
2018-12-16T01:46:31.568Z,22.20
2018-12-16T01:49:09.822Z,20.07
2018-12-16T01:51:47.950Z,20.47
2018-12-16T01:54:26.474Z,20.73
2018-12-16T01:57:06.828Z,21.50
2018-12-16T01:59:44.966Z,20.73
2018-12-16T02:02:23.502Z,22.17
2018-12-16T02:05:01.758Z,21.87
2018-12-16T02:07:43.194Z,21.43
2018-12-16T02:10:21.261Z,21.03
2018-12-16T02:12:59.445Z,20.80
2018-12-16T02:15:39.645Z,21.90
2018-12-16T02:18:37.981Z,21.63
2018-12-16T02:21:16.492Z,22.17
2018-12-16T02:24:19.130Z,22.37
2018-12-16T02:26:57.506Z,21.07
2018-12-16T02:29:34.656Z,21.00
2018-12-16T02:32:12.911Z,21.23
2018-12-16T02:35:15.785Z,21.77
2018-12-16T02:37:54.206Z,20.50
2018-12-16T02:40:31.274Z,21.33
2018-12-16T02:43:09.743Z,21.57
2018-12-16T02:45:49.294Z,21.07
2018-12-16T02:48:27.396Z,21.83
2018-12-16T02:51:06.126Z,21.83
2018-12-16T02:53:44.013Z,21.60
2018-12-16T02:56:22.243Z,21.50
2018-12-16T02:58:59.675Z,20.17
2018-12-16T03:01:40.050Z,21.97
2018-12-16T03:04:18.403Z,20.17
2018-12-16T03:06:56.977Z,22.50
2018-12-16T03:09:35.987Z,21.07
2018-12-16T03:12:14.166Z,22.57
2018-12-16T03:14:52.278Z,22.47
2018-12-16T03:17:30.575Z,22.50
2018-12-16T03:20:08.992Z,22.63
2018-12-16T03:23:12.452Z,22.50
2018-12-16T03:26:16.015Z,23.30
2018-12-16T03:28:54.064Z,21.50
2018-12-16T03:31:32.456Z,22.23
2018-12-16T03:34:10.526Z,23.27
2018-12-16T03:36:48.627Z,22.57
2018-12-16T03:39:26.778Z,23.30
2018-12-16T03:42:29.967Z,23.00
2018-12-16T03:45:08.790Z,23.80
2018-12-16T03:47:46.815Z,22.80
2018-12-16T03:50:24.907Z,22.27
2018-12-16T03:53:03.078Z,23.10
2018-12-16T03:56:01.295Z,24.03
2018-12-16T03:59:44.246Z,23.90
2018-12-16T04:02:23.838Z,23.80
2018-12-16T04:05:10.191Z,23.47
2018-12-16T04:07:49.827Z,22.50
2018-12-16T04:10:28.904Z,24.33
2018-12-16T04:16:38.191Z,22.70
2018-12-16T04:19:16.573Z,22.87
2018-12-16T04:21:54.690Z,24.00
2018-12-16T04:24:33.099Z,22.00
2018-12-16T04:27:11.342Z,24.03
2018-12-16T04:30:14.553Z,22.30
2018-12-16T04:32:52.787Z,22.87
2018-12-16T04:35:30.885Z,23.50
2018-12-16T04:38:10.140Z,25.03
2018-12-16T04:40:48.249Z,23.00
2018-12-16T04:43:26.354Z,24.10
2018-12-16T04:46:04.538Z,24.13
2018-12-16T04:48:42.822Z,24.03
2018-12-16T04:51:19.418Z,24.27
2018-12-16T04:53:57.808Z,22.97
2018-12-16T04:56:37.765Z,24.07
2018-12-16T04:59:14.841Z,23.53
2018-12-16T05:01:54.269Z,23.80
2018-12-16T05:04:32.665Z,24.10
2018-12-16T05:07:11.022Z,24.50
2018-12-16T05:09:49.061Z,23.97
2018-12-16T05:12:27.265Z,25.03
2018-12-16T05:15:05.765Z,23.73
2018-12-16T05:17:44.031Z,22.97
2018-12-16T05:20:21.274Z,24.30
2018-12-16T05:22:59.450Z,24.37
2018-12-16T05:25:37.734Z,23.53
2018-12-16T05:28:15.964Z,23.57
2018-12-16T05:30:55.482Z,23.40
2018-12-16T05:33:35.209Z,22.77
2018-12-16T05:36:13.449Z,23.87
2018-12-16T05:38:51.906Z,23.77
2018-12-16T05:41:29.982Z,23.03
2018-12-16T05:44:08.000Z,22.67
2018-12-16T05:46:45.888Z,24.10
2018-12-16T05:49:24.071Z,22.60
2018-12-16T05:52:02.282Z,23.70
2018-12-16T05:54:41.847Z,24.13
2018-12-16T05:57:20.021Z,22.17
2018-12-16T05:59:59.513Z,22.67
2018-12-16T06:02:37.741Z,24.07
2018-12-16T06:05:16.750Z,22.83
2018-12-16T06:07:54.990Z,23.23
2018-12-16T06:10:32.208Z,22.37
2018-12-16T06:13:09.346Z,23.47
2018-12-16T06:15:49.531Z,21.80
2018-12-16T06:18:27.588Z,23.17
2018-12-16T06:21:06.088Z,24.47
2018-12-16T06:23:44.134Z,24.13
2018-12-16T06:26:20.720Z,23.87
2018-12-16T06:28:58.711Z,23.73
2018-12-16T06:31:35.892Z,23.70
2018-12-16T06:34:13.354Z,23.60
2018-12-16T06:36:51.411Z,22.73
2018-12-16T06:39:29.741Z,23.00
2018-12-16T06:42:08.093Z,22.97
2018-12-16T06:44:45.162Z,23.57
2018-12-16T06:47:26.859Z,23.13
2018-12-16T06:50:29.647Z,23.30
2018-12-16T06:53:07.984Z,23.50
2018-12-16T06:55:48.089Z,25.30
2018-12-16T06:58:26.109Z,22.67
2018-12-16T07:01:05.967Z,24.53
2018-12-16T07:03:43.912Z,22.60
2018-12-16T07:06:21.083Z,23.03
2018-12-16T07:08:59.426Z,23.07
2018-12-16T07:11:37.481Z,22.27
2018-12-16T07:14:20.160Z,23.10
2018-12-16T07:22:09.044Z,22.57
2018-12-16T07:24:46.108Z,23.07
2018-12-16T07:27:24.372Z,23.40
2018-12-16T07:30:02.447Z,23.80
2018-12-16T07:32:40.668Z,22.57
2018-12-16T07:35:18.794Z,23.83
2018-12-16T07:38:05.576Z,22.97
2018-12-16T07:40:43.717Z,23.83
2018-12-16T07:43:21.993Z,24.13
2018-12-16T07:46:00.606Z,23.37
2018-12-16T07:48:39.414Z,22.13
2018-12-16T07:51:19.683Z,23.10
2018-12-16T07:53:59.267Z,21.30
2018-12-16T07:56:37.536Z,23.07
2018-12-16T07:59:15.568Z,24.27
2018-12-16T08:01:53.698Z,24.40
2018-12-16T08:04:32.064Z,22.93
2018-12-16T08:07:10.409Z,22.73
2018-12-16T08:09:56.884Z,23.50
2018-12-16T08:12:34.600Z,23.83
2018-12-16T08:15:12.919Z,21.70
2018-12-16T08:17:51.167Z,23.13
2018-12-16T08:20:29.324Z,23.93
2018-12-16T08:33:28.917Z,24.63
2018-12-16T08:36:06.966Z,23.73
2018-12-16T08:38:44.722Z,25.80
2018-12-16T08:41:24.257Z,24.83
2018-12-16T08:44:02.387Z,23.27
2018-12-16T08:46:40.523Z,25.93
2018-12-16T08:49:19.023Z,25.13
2018-12-16T08:51:56.948Z,24.70
2018-12-16T08:54:35.147Z,24.63
2018-12-16T08:57:13.543Z,26.23
2018-12-16T08:59:53.528Z,25.40
2018-12-16T09:02:33.033Z,24.97
2018-12-16T09:05:12.751Z,25.30
2018-12-16T09:07:49.682Z,25.13
2018-12-16T09:10:34.246Z,25.87
2018-12-16T09:13:12.702Z,24.93
2018-12-16T09:15:50.538Z,24.97
2018-12-16T09:18:28.546Z,25.93
2018-12-16T09:21:06.869Z,26.93
2018-12-16T09:23:45.275Z,26.77
2018-12-16T09:26:23.509Z,26.20
2018-12-16T09:29:01.481Z,27.43
2018-12-16T09:31:39.925Z,26.73
2018-12-16T09:34:18.057Z,26.57
2018-12-16T09:42:09.145Z,26.00
2018-12-16T09:44:48.976Z,25.87
2018-12-16T09:47:27.222Z,27.00
2018-12-16T09:50:07.542Z,25.97
2018-12-16T09:52:45.585Z,24.90
2018-12-16T09:55:31.962Z,25.30
2018-12-16T09:58:09.852Z,26.77
2018-12-16T10:00:48.003Z,26.97
2018-12-16T10:03:26.176Z,27.27
2018-12-16T10:06:12.987Z,25.67
2018-12-16T10:08:52.655Z,26.00
2018-12-16T10:11:30.848Z,26.33
2018-12-16T10:14:10.687Z,25.87
2018-12-16T10:16:48.099Z,26.93
2018-12-16T10:19:25.954Z,26.77
2018-12-16T10:22:04.144Z,26.30
2018-12-16T10:24:42.399Z,26.10
2018-12-16T10:27:20.557Z,25.90
2018-12-16T10:29:59.151Z,26.23
2018-12-16T10:32:37.769Z,25.90
2018-12-16T10:35:18.267Z,27.13
2018-12-16T10:37:56.768Z,26.33
2018-12-16T10:48:21.892Z,26.27
2018-12-16T10:50:59.979Z,26.93
2018-12-16T10:53:37.939Z,26.67
2018-12-16T10:56:16.074Z,25.03
2018-12-16T10:58:54.595Z,27.33
2018-12-16T11:01:33.594Z,26.70
2018-12-16T11:04:11.709Z,25.53
2018-12-16T11:06:49.951Z,26.93
2018-12-16T11:09:28.030Z,26.80
2018-12-16T11:12:06.491Z,25.73
2018-12-16T11:14:44.387Z,24.63
2018-12-16T11:17:22.687Z,25.40
2018-12-16T11:20:00.966Z,26.33
2018-12-16T11:22:38.486Z,25.73
2018-12-16T11:25:17.523Z,27.07
2018-12-16T11:28:20.548Z,26.63
2018-12-16T11:31:00.877Z,25.23
2018-12-16T11:33:41.788Z,26.43
2018-12-16T11:36:21.319Z,24.77
2018-12-16T11:39:01.749Z,24.73
2018-12-16T11:41:39.756Z,25.60
2018-12-16T11:44:18.083Z,25.10
2018-12-16T11:49:31.583Z,24.20
2018-12-16T11:52:09.885Z,25.33
2018-12-16T11:58:43.586Z,24.00
2018-12-16T12:01:21.784Z,24.83
2018-12-16T12:04:03.282Z,24.23
2018-12-16T12:06:41.681Z,25.97
2018-12-16T12:09:19.791Z,25.30
2018-12-16T12:11:57.994Z,25.97
2018-12-16T12:14:36.917Z,26.03
2018-12-16T12:20:47.403Z,24.20
2018-12-16T12:26:56.343Z,25.57
2018-12-16T12:29:34.444Z,26.13
2018-12-16T12:32:11.912Z,26.23
2018-12-16T12:34:52.316Z,25.40
2018-12-16T12:37:30.549Z,26.07
2018-12-16T12:40:08.702Z,25.27
2018-12-16T12:42:46.683Z,25.47
2018-12-16T12:45:24.749Z,26.10
2018-12-16T12:50:40.479Z,25.17
2018-12-16T12:53:20.321Z,25.70
2018-12-16T12:55:58.634Z,24.23
2018-12-16T12:58:36.894Z,24.13
2018-12-16T13:01:15.304Z,23.43
2018-12-16T13:03:53.422Z,24.40
2018-12-16T13:06:56.380Z,26.03
2018-12-16T13:09:34.700Z,23.53
2018-12-16T13:12:12.521Z,22.97
2018-12-16T13:14:50.805Z,23.00
2018-12-16T13:17:28.064Z,23.63
2018-12-16T13:20:06.600Z,20.93
2018-12-16T13:22:46.318Z,23.77
2018-12-16T13:25:35.712Z,23.03
2018-12-16T13:28:14.964Z,22.07
2018-12-16T13:30:52.965Z,22.53
2018-12-16T13:33:31.237Z,23.47
2018-12-16T13:36:11.115Z,22.20
2018-12-16T13:42:18.630Z,22.80
2018-12-16T13:44:56.962Z,23.00
2018-12-16T13:47:39.838Z,23.70
2018-12-16T13:58:06.128Z,25.73
2018-12-16T14:01:08.651Z,23.93
2018-12-16T14:03:48.192Z,23.83
2018-12-16T14:06:26.030Z,23.10
2018-12-16T14:09:07.578Z,22.83
2018-12-16T14:12:10.187Z,23.43
2018-12-16T14:14:49.077Z,23.47
2018-12-16T14:17:26.755Z,24.43
2018-12-16T14:23:34.927Z,23.30
2018-12-16T14:29:43.136Z,22.07
2018-12-16T14:32:45.891Z,24.60
2018-12-16T14:35:27.871Z,23.47
2018-12-16T14:38:06.099Z,23.07
2018-12-16T14:40:44.100Z,24.77
2018-12-16T14:43:46.975Z,25.37
2018-12-16T14:46:30.607Z,21.83
2018-12-16T14:49:08.536Z,23.37
2018-12-16T14:51:46.671Z,25.67
2018-12-16T15:03:04.533Z,27.90
2018-12-16T15:09:21.287Z,29.30
2018-12-16T15:12:00.979Z,27.10
2018-12-16T15:14:40.130Z,27.47
2018-12-16T15:17:18.186Z,26.23
2018-12-16T15:20:21.202Z,27.57
2018-12-16T15:22:59.543Z,27.83
2018-12-16T15:26:02.754Z,29.17
2018-12-16T15:28:42.925Z,30.07
2018-12-16T15:31:21.373Z,31.10
2018-12-16T15:34:24.150Z,34.23
2018-12-16T15:37:06.815Z,30.03
2018-12-16T15:39:46.525Z,32.67
2018-12-16T15:42:49.489Z,31.47
2018-12-16T15:45:29.022Z,32.13
2018-12-16T15:48:32.839Z,28.30
2018-12-16T15:51:32.852Z,27.20
2018-12-16T15:54:10.805Z,25.73
2018-12-16T15:56:49.311Z,27.27
2018-12-16T15:59:53.307Z,27.37
2018-12-16T16:02:32.252Z,27.23
2018-12-16T16:07:43.867Z,26.10
2018-12-16T16:10:21.380Z,27.50
2018-12-16T16:12:59.530Z,25.93
2018-12-16T16:15:37.573Z,26.87
2018-12-16T16:18:14.680Z,26.47
2018-12-16T16:21:17.806Z,26.87
2018-12-16T16:23:56.070Z,26.00
2018-12-16T16:26:58.918Z,27.90
2018-12-16T16:30:02.097Z,27.70
2018-12-16T16:32:48.509Z,24.93
2018-12-16T16:35:26.391Z,27.47
2018-12-16T16:38:07.153Z,33.50
2018-12-16T16:40:46.606Z,30.20
2018-12-16T16:43:24.803Z,28.07
2018-12-16T16:46:04.350Z,26.57
2018-12-16T16:48:44.314Z,28.50
2018-12-16T16:51:22.675Z,25.33
2018-12-16T16:54:00.770Z,26.73
2018-12-16T16:56:39.170Z,24.13
2018-12-16T16:59:43.072Z,24.67
2018-12-16T17:02:21.343Z,24.50
2018-12-16T17:04:59.654Z,25.50
2018-12-16T17:08:02.532Z,24.33
2018-12-16T17:10:41.054Z,25.03
2018-12-16T17:13:27.201Z,25.17
2018-12-16T17:16:29.518Z,26.10
2018-12-16T17:22:36.775Z,24.37
2018-12-16T17:25:14.981Z,23.63
2018-12-16T17:27:53.162Z,23.33
2018-12-16T17:30:32.994Z,24.37
2018-12-16T17:33:15.704Z,24.17
2018-12-16T17:36:18.314Z,25.13
2018-12-16T17:38:56.390Z,23.63
2018-12-16T17:41:36.811Z,23.70
2018-12-16T17:44:39.718Z,25.43
2018-12-16T17:47:42.880Z,28.23
2018-12-16T17:50:46.039Z,25.27
2018-12-16T17:53:50.050Z,20.90
2018-12-16T17:56:37.011Z,22.77
2018-12-16T17:59:17.935Z,21.83
2018-12-16T18:02:17.595Z,26.90
2018-12-16T18:05:16.375Z,22.97
2018-12-16T18:11:52.345Z,23.20
2018-12-16T18:14:30.548Z,20.87
2018-12-16T18:17:12.314Z,21.83
2018-12-16T18:19:49.132Z,22.70
2018-12-16T18:22:27.275Z,23.33
2018-12-16T18:25:06.108Z,23.10
2018-12-16T18:27:46.914Z,21.33
2018-12-16T18:37:30.859Z,22.67
2018-12-16T18:40:13.899Z,21.20
2018-12-16T18:43:06.051Z,22.53
2018-12-16T18:46:09.817Z,20.37
2018-12-16T18:52:44.286Z,20.20
2018-12-16T18:55:47.238Z,19.90
2018-12-16T18:58:49.492Z,21.57
2018-12-16T19:01:32.320Z,18.57
2018-12-16T19:04:35.387Z,20.07
2018-12-16T19:07:38.451Z,19.20
2018-12-16T19:10:16.917Z,19.17
2018-12-16T19:13:16.651Z,20.27
2018-12-16T19:19:49.375Z,21.10
2018-12-16T19:26:24.194Z,21.23
2018-12-16T19:29:02.584Z,19.77
2018-12-16T19:31:48.826Z,26.97
2018-12-16T19:34:51.489Z,23.00
2018-12-16T19:37:29.877Z,18.27
2018-12-16T19:40:15.028Z,18.53
2018-12-16T19:46:23.863Z,19.43
2018-12-16T19:49:22.803Z,20.90
2018-12-16T19:52:02.171Z,22.80
2018-12-16T19:54:44.595Z,24.67
2018-12-16T19:57:26.887Z,20.03
2018-12-16T20:00:08.390Z,20.70
2018-12-16T20:09:49.334Z,19.43
2018-12-16T20:12:31.663Z,19.80
2018-12-16T20:18:40.404Z,20.03
2018-12-16T20:24:49.665Z,19.87
2018-12-16T20:27:53.345Z,19.20
2018-12-16T20:37:32.851Z,21.37
2018-12-16T20:40:35.513Z,19.13
2018-12-16T20:43:12.889Z,20.00
2018-12-16T20:45:50.883Z,19.53
2018-12-16T20:48:29.231Z,19.73
2018-12-16T20:54:37.698Z,20.67
2018-12-16T20:57:18.910Z,19.63
2018-12-16T21:00:21.575Z,21.67
2018-12-16T21:03:24.395Z,21.83
2018-12-16T21:06:02.539Z,21.33
2018-12-16T21:08:41.040Z,21.70
2018-12-16T21:11:24.585Z,22.63
2018-12-16T21:16:13.917Z,21.33
2018-12-16T21:18:52.125Z,21.93
2018-12-16T21:21:30.990Z,21.83
2018-12-16T21:24:09.221Z,20.93
2018-12-16T21:27:12.881Z,18.03
2018-12-16T21:29:52.065Z,16.83
2018-12-16T21:32:33.907Z,15.90
2018-12-16T21:35:13.501Z,17.20
2018-12-16T21:41:25.973Z,19.50
2018-12-16T21:51:28.176Z,17.67
2018-12-16T21:54:14.659Z,19.23
2018-12-16T21:56:54.317Z,19.27
2018-12-16T21:59:32.644Z,20.67
2018-12-16T22:02:10.552Z,19.77
2018-12-16T22:11:53.679Z,18.70
2018-12-16T22:14:34.909Z,19.73
2018-12-16T22:17:16.342Z,19.00
2018-12-16T22:23:48.634Z,19.33
2018-12-16T22:26:27.158Z,19.33
2018-12-16T22:29:30.935Z,19.93
2018-12-16T22:32:09.703Z,18.33
2018-12-16T22:34:46.628Z,19.37
2018-12-16T22:37:50.217Z,19.43
2018-12-16T22:40:29.146Z,19.30
2018-12-16T22:43:31.722Z,20.23
2018-12-16T22:46:10.190Z,20.60
2018-12-16T22:49:12.890Z,20.20
2018-12-16T22:55:22.380Z,23.17
2018-12-16T23:01:55.867Z,19.97
2018-12-16T23:08:08.727Z,20.73
2018-12-16T23:11:12.411Z,19.57
2018-12-16T23:17:22.809Z,20.10
2018-12-16T23:20:19.745Z,20.67
2018-12-16T23:26:31.930Z,19.47
2018-12-16T23:29:10.115Z,19.63
2018-12-16T23:31:51.700Z,19.87
2018-12-16T23:38:00.702Z,19.60
2018-12-16T23:47:42.824Z,19.03
2018-12-16T23:50:23.779Z,18.57
2018-12-16T23:53:02.286Z,17.73
2018-12-16T23:56:06.133Z,17.87
2018-12-16T23:59:08.516Z,18.23
